sensor_id;sensor_type;location;lat;lon;timestamp;P1;durP1;ratioP1;P2;durP2;ratioP2
18623;SDS011;9441;51.420;7.036;2023-08-31T00:00:10;8.83;;;3.70;;
18623;SDS011;9441;51.420;7.036;2023-08-31T00:01:12;13.97;;;3.53;;
18623;SDS011;9441;51.420;7.036;2023-08-31T00:02:14;7.13;;;4.00;;
18623;SDS011;9441;51.420;7.036;2023-08-31T00:03:16;8.63;;;3.63;;
18623;SDS011;9441;51.420;7.036;2023-08-31T00:04:19;17.73;;;3.90;;
18623;SDS011;9441;51.420;7.036;2023-08-31T00:05:21;14.33;;;3.77;;
18623;SDS011;9441;51.420;7.036;2023-08-31T00:06:25;9.10;;;3.70;;
18623;SDS011;9441;51.420;7.036;2023-08-31T00:07:26;7.97;;;3.60;;
18623;SDS011;9441;51.420;7.036;2023-08-31T00:08:29;7.43;;;3.60;;
18623;SDS011;9441;51.420;7.036;2023-08-31T00:09:30;11.50;;;3.93;;
18623;SDS011;9441;51.420;7.036;2023-08-31T00:10:33;13.27;;;4.00;;
18623;SDS011;9441;51.420;7.036;2023-08-31T00:11:35;5.93;;;3.80;;
18623;SDS011;9441;51.420;7.036;2023-08-31T00:12:37;8.83;;;4.00;;
18623;SDS011;9441;51.420;7.036;2023-08-31T00:13:38;7.43;;;3.97;;
18623;SDS011;9441;51.420;7.036;2023-08-31T00:14:41;9.60;;;3.67;;
18623;SDS011;9441;51.420;7.036;2023-08-31T00:15:42;11.40;;;4.10;;
18623;SDS011;9441;51.420;7.036;2023-08-31T00:16:45;12.53;;;3.77;;
18623;SDS011;9441;51.420;7.036;2023-08-31T00:17:47;10.13;;;3.90;;
18623;SDS011;9441;51.420;7.036;2023-08-31T00:18:49;10.63;;;4.37;;
18623;SDS011;9441;51.420;7.036;2023-08-31T00:19:50;6.27;;;4.13;;
18623;SDS011;9441;51.420;7.036;2023-08-31T00:20:54;11.20;;;3.87;;
18623;SDS011;9441;51.420;7.036;2023-08-31T00:21:55;13.17;;;3.83;;
18623;SDS011;9441;51.420;7.036;2023-08-31T00:22:58;7.83;;;4.00;;
18623;SDS011;9441;51.420;7.036;2023-08-31T00:23:59;9.00;;;3.60;;
18623;SDS011;9441;51.420;7.036;2023-08-31T00:25:01;7.53;;;3.50;;
18623;SDS011;9441;51.420;7.036;2023-08-31T00:26:03;10.03;;;3.70;;
18623;SDS011;9441;51.420;7.036;2023-08-31T00:27:05;11.27;;;4.20;;
18623;SDS011;9441;51.420;7.036;2023-08-31T00:28:07;10.77;;;4.00;;
18623;SDS011;9441;51.420;7.036;2023-08-31T00:29:09;13.10;;;3.97;;
18623;SDS011;9441;51.420;7.036;2023-08-31T00:30:12;7.20;;;4.10;;
18623;SDS011;9441;51.420;7.036;2023-08-31T00:31:15;11.03;;;4.30;;
18623;SDS011;9441;51.420;7.036;2023-08-31T00:32:16;13.57;;;4.13;;
18623;SDS011;9441;51.420;7.036;2023-08-31T00:33:19;13.13;;;4.20;;
18623;SDS011;9441;51.420;7.036;2023-08-31T00:34:21;10.27;;;4.17;;
18623;SDS011;9441;51.420;7.036;2023-08-31T00:35:22;11.70;;;4.10;;
18623;SDS011;9441;51.420;7.036;2023-08-31T00:36:26;10.50;;;4.40;;
18623;SDS011;9441;51.420;7.036;2023-08-31T00:37:28;11.23;;;4.33;;
18623;SDS011;9441;51.420;7.036;2023-08-31T00:38:30;10.50;;;4.40;;
18623;SDS011;9441;51.420;7.036;2023-08-31T00:39:32;12.90;;;4.50;;
18623;SDS011;9441;51.420;7.036;2023-08-31T00:40:38;10.33;;;4.37;;
18623;SDS011;9441;51.420;7.036;2023-08-31T00:41:41;10.63;;;4.23;;
18623;SDS011;9441;51.420;7.036;2023-08-31T00:42:45;6.33;;;3.83;;
18623;SDS011;9441;51.420;7.036;2023-08-31T00:43:47;9.80;;;4.43;;
18623;SDS011;9441;51.420;7.036;2023-08-31T00:44:49;13.30;;;4.93;;
18623;SDS011;9441;51.420;7.036;2023-08-31T00:45:51;13.17;;;4.47;;
18623;SDS011;9441;51.420;7.036;2023-08-31T00:46:54;12.07;;;4.33;;
18623;SDS011;9441;51.420;7.036;2023-08-31T00:47:56;15.20;;;4.67;;
18623;SDS011;9441;51.420;7.036;2023-08-31T00:48:58;10.67;;;4.70;;
18623;SDS011;9441;51.420;7.036;2023-08-31T00:50:00;13.97;;;4.50;;
18623;SDS011;9441;51.420;7.036;2023-08-31T00:51:05;7.20;;;4.30;;
18623;SDS011;9441;51.420;7.036;2023-08-31T00:52:08;12.93;;;4.23;;
18623;SDS011;9441;51.420;7.036;2023-08-31T00:53:11;8.90;;;4.50;;
18623;SDS011;9441;51.420;7.036;2023-08-31T00:54:12;6.27;;;3.90;;
18623;SDS011;9441;51.420;7.036;2023-08-31T00:55:15;14.07;;;4.80;;
18623;SDS011;9441;51.420;7.036;2023-08-31T00:56:18;8.90;;;4.90;;
18623;SDS011;9441;51.420;7.036;2023-08-31T00:57:21;12.17;;;5.00;;
18623;SDS011;9441;51.420;7.036;2023-08-31T00:58:24;11.73;;;4.80;;
18623;SDS011;9441;51.420;7.036;2023-08-31T00:59:27;8.63;;;4.27;;
18623;SDS011;9441;51.420;7.036;2023-08-31T01:00:30;12.03;;;4.90;;
18623;SDS011;9441;51.420;7.036;2023-08-31T01:01:35;8.77;;;4.73;;
18623;SDS011;9441;51.420;7.036;2023-08-31T01:02:41;12.93;;;4.90;;
18623;SDS011;9441;51.420;7.036;2023-08-31T01:03:47;12.10;;;5.10;;
18623;SDS011;9441;51.420;7.036;2023-08-31T01:04:55;14.50;;;4.80;;
18623;SDS011;9441;51.420;7.036;2023-08-31T01:06:00;11.67;;;5.13;;
18623;SDS011;9441;51.420;7.036;2023-08-31T01:08:25;9.70;;;4.80;;
18623;SDS011;9441;51.420;7.036;2023-08-31T01:09:34;10.70;;;4.73;;
18623;SDS011;9441;51.420;7.036;2023-08-31T01:10:38;14.00;;;4.90;;
18623;SDS011;9441;51.420;7.036;2023-08-31T01:11:45;14.77;;;4.70;;
18623;SDS011;9441;51.420;7.036;2023-08-31T01:12:52;9.23;;;4.70;;
18623;SDS011;9441;51.420;7.036;2023-08-31T01:13:57;10.40;;;4.80;;
18623;SDS011;9441;51.420;7.036;2023-08-31T01:15:05;12.10;;;4.57;;
18623;SDS011;9441;51.420;7.036;2023-08-31T01:16:09;13.50;;;5.07;;
18623;SDS011;9441;51.420;7.036;2023-08-31T01:17:12;9.60;;;4.93;;
18623;SDS011;9441;51.420;7.036;2023-08-31T01:18:14;12.10;;;4.90;;
18623;SDS011;9441;51.420;7.036;2023-08-31T01:19:17;7.87;;;4.60;;
18623;SDS011;9441;51.420;7.036;2023-08-31T01:20:26;11.27;;;4.57;;
18623;SDS011;9441;51.420;7.036;2023-08-31T01:21:33;8.90;;;4.40;;
18623;SDS011;9441;51.420;7.036;2023-08-31T01:22:38;9.53;;;5.03;;
18623;SDS011;9441;51.420;7.036;2023-08-31T01:23:49;11.73;;;4.90;;
18623;SDS011;9441;51.420;7.036;2023-08-31T01:24:51;8.70;;;4.97;;
18623;SDS011;9441;51.420;7.036;2023-08-31T01:25:53;12.20;;;5.40;;
18623;SDS011;9441;51.420;7.036;2023-08-31T01:26:57;10.90;;;5.03;;
18623;SDS011;9441;51.420;7.036;2023-08-31T01:27:58;11.23;;;5.13;;
18623;SDS011;9441;51.420;7.036;2023-08-31T01:29:00;11.73;;;5.30;;
18623;SDS011;9441;51.420;7.036;2023-08-31T01:30:02;13.07;;;4.93;;
18623;SDS011;9441;51.420;7.036;2023-08-31T01:31:05;10.20;;;4.87;;
18623;SDS011;9441;51.420;7.036;2023-08-31T01:32:07;10.80;;;5.30;;
18623;SDS011;9441;51.420;7.036;2023-08-31T01:33:11;12.73;;;5.33;;
18623;SDS011;9441;51.420;7.036;2023-08-31T01:34:13;9.20;;;4.83;;
18623;SDS011;9441;51.420;7.036;2023-08-31T01:35:16;8.67;;;4.70;;
18623;SDS011;9441;51.420;7.036;2023-08-31T01:36:23;8.87;;;5.17;;
18623;SDS011;9441;51.420;7.036;2023-08-31T01:37:28;12.33;;;5.83;;
18623;SDS011;9441;51.420;7.036;2023-08-31T01:38:30;11.13;;;5.30;;
18623;SDS011;9441;51.420;7.036;2023-08-31T01:39:39;11.77;;;5.47;;
18623;SDS011;9441;51.420;7.036;2023-08-31T01:40:44;11.17;;;5.50;;
18623;SDS011;9441;51.420;7.036;2023-08-31T01:41:48;11.50;;;5.40;;
18623;SDS011;9441;51.420;7.036;2023-08-31T01:42:52;12.47;;;5.50;;
18623;SDS011;9441;51.420;7.036;2023-08-31T01:43:54;10.33;;;5.50;;
18623;SDS011;9441;51.420;7.036;2023-08-31T01:44:56;13.57;;;5.53;;
18623;SDS011;9441;51.420;7.036;2023-08-31T01:45:58;10.70;;;5.30;;
18623;SDS011;9441;51.420;7.036;2023-08-31T01:47:02;9.77;;;5.20;;
18623;SDS011;9441;51.420;7.036;2023-08-31T01:48:03;9.73;;;5.20;;
18623;SDS011;9441;51.420;7.036;2023-08-31T01:49:05;12.83;;;5.00;;
18623;SDS011;9441;51.420;7.036;2023-08-31T01:50:08;8.10;;;5.43;;
18623;SDS011;9441;51.420;7.036;2023-08-31T01:51:09;9.60;;;5.67;;
18623;SDS011;9441;51.420;7.036;2023-08-31T01:52:13;10.40;;;5.30;;
18623;SDS011;9441;51.420;7.036;2023-08-31T01:53:14;12.07;;;5.83;;
18623;SDS011;9441;51.420;7.036;2023-08-31T01:54:17;16.80;;;5.77;;
18623;SDS011;9441;51.420;7.036;2023-08-31T01:55:19;9.57;;;5.43;;
18623;SDS011;9441;51.420;7.036;2023-08-31T01:56:22;10.03;;;5.10;;
18623;SDS011;9441;51.420;7.036;2023-08-31T01:57:25;15.13;;;6.10;;
18623;SDS011;9441;51.420;7.036;2023-08-31T01:58:45;10.47;;;5.47;;
18623;SDS011;9441;51.420;7.036;2023-08-31T01:59:46;11.67;;;5.50;;
18623;SDS011;9441;51.420;7.036;2023-08-31T02:00:49;10.90;;;5.20;;
18623;SDS011;9441;51.420;7.036;2023-08-31T02:01:50;8.27;;;5.27;;
18623;SDS011;9441;51.420;7.036;2023-08-31T02:02:52;11.83;;;5.50;;
18623;SDS011;9441;51.420;7.036;2023-08-31T02:03:53;10.80;;;6.13;;
18623;SDS011;9441;51.420;7.036;2023-08-31T02:04:56;11.60;;;5.57;;
18623;SDS011;9441;51.420;7.036;2023-08-31T02:06:01;9.87;;;5.33;;
18623;SDS011;9441;51.420;7.036;2023-08-31T02:07:04;12.50;;;5.17;;
18623;SDS011;9441;51.420;7.036;2023-08-31T02:08:06;14.90;;;5.50;;
18623;SDS011;9441;51.420;7.036;2023-08-31T02:09:14;13.87;;;5.90;;
18623;SDS011;9441;51.420;7.036;2023-08-31T02:10:16;10.80;;;5.23;;
18623;SDS011;9441;51.420;7.036;2023-08-31T02:11:21;8.60;;;5.70;;
18623;SDS011;9441;51.420;7.036;2023-08-31T02:12:22;13.00;;;5.50;;
18623;SDS011;9441;51.420;7.036;2023-08-31T02:13:25;14.07;;;5.73;;
18623;SDS011;9441;51.420;7.036;2023-08-31T02:14:26;13.77;;;5.33;;
18623;SDS011;9441;51.420;7.036;2023-08-31T02:15:28;12.40;;;5.30;;
18623;SDS011;9441;51.420;7.036;2023-08-31T02:16:33;10.97;;;5.60;;
18623;SDS011;9441;51.420;7.036;2023-08-31T02:17:35;12.40;;;5.27;;
18623;SDS011;9441;51.420;7.036;2023-08-31T02:18:37;12.07;;;5.70;;
18623;SDS011;9441;51.420;7.036;2023-08-31T02:19:39;10.97;;;5.57;;
18623;SDS011;9441;51.420;7.036;2023-08-31T02:20:40;10.93;;;5.20;;
18623;SDS011;9441;51.420;7.036;2023-08-31T02:21:43;11.40;;;5.27;;
18623;SDS011;9441;51.420;7.036;2023-08-31T02:22:44;10.20;;;5.90;;
18623;SDS011;9441;51.420;7.036;2023-08-31T02:23:46;12.33;;;5.50;;
18623;SDS011;9441;51.420;7.036;2023-08-31T02:24:48;8.60;;;5.60;;
18623;SDS011;9441;51.420;7.036;2023-08-31T02:25:51;11.57;;;5.43;;
18623;SDS011;9441;51.420;7.036;2023-08-31T02:26:54;8.07;;;5.47;;
18623;SDS011;9441;51.420;7.036;2023-08-31T02:27:56;14.97;;;5.40;;
18623;SDS011;9441;51.420;7.036;2023-08-31T02:28:57;13.17;;;5.67;;
18623;SDS011;9441;51.420;7.036;2023-08-31T02:30:00;10.40;;;5.40;;
18623;SDS011;9441;51.420;7.036;2023-08-31T02:31:04;9.77;;;5.67;;
18623;SDS011;9441;51.420;7.036;2023-08-31T02:32:06;9.90;;;5.37;;
18623;SDS011;9441;51.420;7.036;2023-08-31T02:33:08;12.17;;;5.47;;
18623;SDS011;9441;51.420;7.036;2023-08-31T02:34:10;13.10;;;5.50;;
18623;SDS011;9441;51.420;7.036;2023-08-31T02:35:12;18.23;;;5.73;;
18623;SDS011;9441;51.420;7.036;2023-08-31T02:36:16;9.67;;;5.63;;
18623;SDS011;9441;51.420;7.036;2023-08-31T02:37:17;11.93;;;5.60;;
18623;SDS011;9441;51.420;7.036;2023-08-31T02:38:20;13.57;;;5.20;;
18623;SDS011;9441;51.420;7.036;2023-08-31T02:39:21;13.60;;;6.00;;
18623;SDS011;9441;51.420;7.036;2023-08-31T02:40:23;9.80;;;5.70;;
18623;SDS011;9441;51.420;7.036;2023-08-31T02:41:24;12.93;;;6.17;;
18623;SDS011;9441;51.420;7.036;2023-08-31T02:42:28;18.93;;;5.70;;
18623;SDS011;9441;51.420;7.036;2023-08-31T02:43:29;11.27;;;5.27;;
18623;SDS011;9441;51.420;7.036;2023-08-31T02:44:32;11.53;;;5.60;;
18623;SDS011;9441;51.420;7.036;2023-08-31T02:45:33;11.30;;;5.63;;
18623;SDS011;9441;51.420;7.036;2023-08-31T02:46:36;9.43;;;5.80;;
18623;SDS011;9441;51.420;7.036;2023-08-31T02:47:37;10.13;;;5.03;;
18623;SDS011;9441;51.420;7.036;2023-08-31T02:48:39;9.87;;;5.27;;
18623;SDS011;9441;51.420;7.036;2023-08-31T02:49:42;11.53;;;5.60;;
18623;SDS011;9441;51.420;7.036;2023-08-31T02:50:45;10.17;;;5.53;;
18623;SDS011;9441;51.420;7.036;2023-08-31T02:51:47;8.97;;;5.20;;
18623;SDS011;9441;51.420;7.036;2023-08-31T02:52:50;12.10;;;5.77;;
18623;SDS011;9441;51.420;7.036;2023-08-31T02:53:51;12.70;;;5.70;;
18623;SDS011;9441;51.420;7.036;2023-08-31T02:54:54;11.20;;;5.43;;
18623;SDS011;9441;51.420;7.036;2023-08-31T02:55:56;12.70;;;5.40;;
18623;SDS011;9441;51.420;7.036;2023-08-31T02:56:58;12.13;;;5.77;;
18623;SDS011;9441;51.420;7.036;2023-08-31T02:58:01;17.70;;;6.17;;
18623;SDS011;9441;51.420;7.036;2023-08-31T02:59:04;17.20;;;6.00;;
18623;SDS011;9441;51.420;7.036;2023-08-31T03:00:06;8.83;;;5.47;;
18623;SDS011;9441;51.420;7.036;2023-08-31T03:01:13;11.57;;;5.97;;
18623;SDS011;9441;51.420;7.036;2023-08-31T03:02:19;12.23;;;5.97;;
18623;SDS011;9441;51.420;7.036;2023-08-31T03:03:22;15.23;;;6.17;;
18623;SDS011;9441;51.420;7.036;2023-08-31T03:04:23;11.23;;;5.77;;
18623;SDS011;9441;51.420;7.036;2023-08-31T03:05:27;12.37;;;6.13;;
18623;SDS011;9441;51.420;7.036;2023-08-31T03:06:28;13.17;;;6.77;;
18623;SDS011;9441;51.420;7.036;2023-08-31T03:07:30;11.77;;;5.80;;
18623;SDS011;9441;51.420;7.036;2023-08-31T03:08:32;11.03;;;6.33;;
18623;SDS011;9441;51.420;7.036;2023-08-31T03:09:33;16.40;;;6.60;;
18623;SDS011;9441;51.420;7.036;2023-08-31T03:10:35;11.67;;;5.97;;
18623;SDS011;9441;51.420;7.036;2023-08-31T03:11:37;12.17;;;6.13;;
18623;SDS011;9441;51.420;7.036;2023-08-31T03:12:39;8.97;;;5.57;;
18623;SDS011;9441;51.420;7.036;2023-08-31T03:13:42;11.07;;;5.77;;
18623;SDS011;9441;51.420;7.036;2023-08-31T03:14:46;11.60;;;5.77;;
18623;SDS011;9441;51.420;7.036;2023-08-31T03:15:47;12.23;;;5.83;;
18623;SDS011;9441;51.420;7.036;2023-08-31T03:16:49;13.90;;;5.67;;
18623;SDS011;9441;51.420;7.036;2023-08-31T03:17:50;10.93;;;5.67;;
18623;SDS011;9441;51.420;7.036;2023-08-31T03:18:53;11.33;;;5.73;;
18623;SDS011;9441;51.420;7.036;2023-08-31T03:19:54;9.33;;;5.80;;
18623;SDS011;9441;51.420;7.036;2023-08-31T03:20:56;10.83;;;6.10;;
18623;SDS011;9441;51.420;7.036;2023-08-31T03:21:58;11.30;;;5.80;;
18623;SDS011;9441;51.420;7.036;2023-08-31T03:23:01;10.67;;;5.70;;
18623;SDS011;9441;51.420;7.036;2023-08-31T03:24:02;11.03;;;6.00;;
18623;SDS011;9441;51.420;7.036;2023-08-31T03:25:05;11.80;;;5.63;;
18623;SDS011;9441;51.420;7.036;2023-08-31T03:26:06;9.93;;;5.97;;
18623;SDS011;9441;51.420;7.036;2023-08-31T03:27:09;9.80;;;5.60;;
18623;SDS011;9441;51.420;7.036;2023-08-31T03:28:10;10.27;;;5.83;;
18623;SDS011;9441;51.420;7.036;2023-08-31T03:29:14;15.90;;;6.83;;
18623;SDS011;9441;51.420;7.036;2023-08-31T03:30:15;12.03;;;7.80;;
18623;SDS011;9441;51.420;7.036;2023-08-31T03:31:17;11.63;;;7.07;;
18623;SDS011;9441;51.420;7.036;2023-08-31T03:32:19;12.53;;;6.67;;
18623;SDS011;9441;51.420;7.036;2023-08-31T03:33:21;11.47;;;6.67;;
18623;SDS011;9441;51.420;7.036;2023-08-31T03:34:22;10.83;;;7.20;;
18623;SDS011;9441;51.420;7.036;2023-08-31T03:35:25;11.40;;;6.43;;
18623;SDS011;9441;51.420;7.036;2023-08-31T03:36:28;13.07;;;6.43;;
18623;SDS011;9441;51.420;7.036;2023-08-31T03:37:30;9.37;;;6.63;;
18623;SDS011;9441;51.420;7.036;2023-08-31T03:38:32;10.60;;;6.43;;
18623;SDS011;9441;51.420;7.036;2023-08-31T03:39:37;9.37;;;6.00;;
18623;SDS011;9441;51.420;7.036;2023-08-31T03:40:42;10.13;;;6.33;;
18623;SDS011;9441;51.420;7.036;2023-08-31T03:41:45;11.07;;;6.13;;
18623;SDS011;9441;51.420;7.036;2023-08-31T03:42:46;13.70;;;7.03;;
18623;SDS011;9441;51.420;7.036;2023-08-31T03:43:48;11.00;;;6.53;;
18623;SDS011;9441;51.420;7.036;2023-08-31T03:44:57;10.67;;;6.03;;
18623;SDS011;9441;51.420;7.036;2023-08-31T03:46:00;15.47;;;6.33;;
18623;SDS011;9441;51.420;7.036;2023-08-31T03:47:01;13.53;;;6.60;;
18623;SDS011;9441;51.420;7.036;2023-08-31T03:48:04;10.40;;;6.00;;
18623;SDS011;9441;51.420;7.036;2023-08-31T03:49:05;9.37;;;6.40;;
18623;SDS011;9441;51.420;7.036;2023-08-31T03:50:08;14.20;;;6.90;;
18623;SDS011;9441;51.420;7.036;2023-08-31T03:51:09;12.10;;;6.67;;
18623;SDS011;9441;51.420;7.036;2023-08-31T03:52:11;14.47;;;6.77;;
18623;SDS011;9441;51.420;7.036;2023-08-31T03:53:13;14.03;;;6.63;;
18623;SDS011;9441;51.420;7.036;2023-08-31T03:54:15;11.53;;;6.63;;
18623;SDS011;9441;51.420;7.036;2023-08-31T03:55:16;12.00;;;7.07;;
18623;SDS011;9441;51.420;7.036;2023-08-31T03:56:19;12.80;;;7.03;;
18623;SDS011;9441;51.420;7.036;2023-08-31T03:57:22;11.23;;;6.30;;
18623;SDS011;9441;51.420;7.036;2023-08-31T03:58:26;11.70;;;6.67;;
18623;SDS011;9441;51.420;7.036;2023-08-31T03:59:28;13.50;;;6.70;;
18623;SDS011;9441;51.420;7.036;2023-08-31T04:00:32;11.37;;;7.10;;
18623;SDS011;9441;51.420;7.036;2023-08-31T04:01:34;9.57;;;7.17;;
18623;SDS011;9441;51.420;7.036;2023-08-31T04:02:36;12.47;;;7.00;;
18623;SDS011;9441;51.420;7.036;2023-08-31T04:03:38;10.40;;;6.70;;
18623;SDS011;9441;51.420;7.036;2023-08-31T04:04:40;10.63;;;6.83;;
18623;SDS011;9441;51.420;7.036;2023-08-31T04:05:42;16.33;;;8.30;;
18623;SDS011;9441;51.420;7.036;2023-08-31T04:06:45;12.00;;;7.40;;
18623;SDS011;9441;51.420;7.036;2023-08-31T04:07:47;13.23;;;8.40;;
18623;SDS011;9441;51.420;7.036;2023-08-31T04:08:48;13.43;;;7.97;;
18623;SDS011;9441;51.420;7.036;2023-08-31T04:09:51;15.30;;;8.23;;
18623;SDS011;9441;51.420;7.036;2023-08-31T04:10:53;11.97;;;8.03;;
18623;SDS011;9441;51.420;7.036;2023-08-31T04:11:55;13.27;;;7.73;;
18623;SDS011;9441;51.420;7.036;2023-08-31T04:12:57;14.93;;;7.63;;
18623;SDS011;9441;51.420;7.036;2023-08-31T04:14:02;11.37;;;7.70;;
18623;SDS011;9441;51.420;7.036;2023-08-31T04:15:04;14.60;;;7.57;;
18623;SDS011;9441;51.420;7.036;2023-08-31T04:16:08;16.23;;;7.73;;
18623;SDS011;9441;51.420;7.036;2023-08-31T04:17:09;11.17;;;6.73;;
18623;SDS011;9441;51.420;7.036;2023-08-31T04:18:11;12.13;;;6.83;;
18623;SDS011;9441;51.420;7.036;2023-08-31T04:19:13;12.50;;;7.23;;
18623;SDS011;9441;51.420;7.036;2023-08-31T04:20:14;13.63;;;6.73;;
18623;SDS011;9441;51.420;7.036;2023-08-31T04:21:16;13.50;;;7.20;;
18623;SDS011;9441;51.420;7.036;2023-08-31T04:22:18;12.17;;;6.67;;
18623;SDS011;9441;51.420;7.036;2023-08-31T04:23:20;11.37;;;7.13;;
18623;SDS011;9441;51.420;7.036;2023-08-31T04:24:22;17.60;;;7.50;;
18623;SDS011;9441;51.420;7.036;2023-08-31T04:25:24;14.40;;;7.97;;
18623;SDS011;9441;51.420;7.036;2023-08-31T04:26:26;13.47;;;8.03;;
18623;SDS011;9441;51.420;7.036;2023-08-31T04:27:29;13.53;;;7.80;;
18623;SDS011;9441;51.420;7.036;2023-08-31T04:28:31;18.90;;;8.47;;
18623;SDS011;9441;51.420;7.036;2023-08-31T04:29:33;18.80;;;8.67;;
18623;SDS011;9441;51.420;7.036;2023-08-31T04:30:35;18.47;;;9.53;;
18623;SDS011;9441;51.420;7.036;2023-08-31T04:31:38;19.43;;;9.40;;
18623;SDS011;9441;51.420;7.036;2023-08-31T04:32:40;15.83;;;9.23;;
18623;SDS011;9441;51.420;7.036;2023-08-31T04:33:42;17.23;;;9.70;;
18623;SDS011;9441;51.420;7.036;2023-08-31T04:34:43;22.13;;;10.50;;
18623;SDS011;9441;51.420;7.036;2023-08-31T04:35:46;18.13;;;11.60;;
18623;SDS011;9441;51.420;7.036;2023-08-31T04:36:47;22.90;;;12.77;;
18623;SDS011;9441;51.420;7.036;2023-08-31T04:37:50;24.13;;;12.67;;
18623;SDS011;9441;51.420;7.036;2023-08-31T04:38:51;26.07;;;13.57;;
18623;SDS011;9441;51.420;7.036;2023-08-31T04:39:53;25.73;;;12.97;;
18623;SDS011;9441;51.420;7.036;2023-08-31T04:40:57;27.23;;;13.20;;
18623;SDS011;9441;51.420;7.036;2023-08-31T04:41:59;20.93;;;11.60;;
18623;SDS011;9441;51.420;7.036;2023-08-31T04:43:01;17.87;;;11.87;;
18623;SDS011;9441;51.420;7.036;2023-08-31T04:44:03;23.77;;;12.80;;
18623;SDS011;9441;51.420;7.036;2023-08-31T04:45:05;23.97;;;13.33;;
18623;SDS011;9441;51.420;7.036;2023-08-31T04:46:07;30.17;;;15.87;;
18623;SDS011;9441;51.420;7.036;2023-08-31T04:47:10;31.00;;;17.27;;
18623;SDS011;9441;51.420;7.036;2023-08-31T04:48:12;31.33;;;17.63;;
18623;SDS011;9441;51.420;7.036;2023-08-31T04:49:16;26.37;;;14.53;;
18623;SDS011;9441;51.420;7.036;2023-08-31T04:50:18;28.27;;;14.67;;
18623;SDS011;9441;51.420;7.036;2023-08-31T04:51:29;24.27;;;12.40;;
18623;SDS011;9441;51.420;7.036;2023-08-31T04:52:32;25.43;;;12.97;;
18623;SDS011;9441;51.420;7.036;2023-08-31T04:53:33;20.10;;;10.87;;
18623;SDS011;9441;51.420;7.036;2023-08-31T04:54:36;18.57;;;10.37;;
18623;SDS011;9441;51.420;7.036;2023-08-31T04:55:37;17.67;;;10.30;;
18623;SDS011;9441;51.420;7.036;2023-08-31T04:56:39;18.87;;;10.63;;
18623;SDS011;9441;51.420;7.036;2023-08-31T04:57:40;18.07;;;11.13;;
18623;SDS011;9441;51.420;7.036;2023-08-31T04:58:43;17.40;;;10.73;;
18623;SDS011;9441;51.420;7.036;2023-08-31T04:59:44;15.70;;;10.50;;
18623;SDS011;9441;51.420;7.036;2023-08-31T05:00:46;25.67;;;11.07;;
18623;SDS011;9441;51.420;7.036;2023-08-31T05:01:48;20.57;;;11.87;;
18623;SDS011;9441;51.420;7.036;2023-08-31T05:02:51;23.47;;;12.30;;
18623;SDS011;9441;51.420;7.036;2023-08-31T05:03:52;19.53;;;11.20;;
18623;SDS011;9441;51.420;7.036;2023-08-31T05:04:54;21.63;;;11.70;;
18623;SDS011;9441;51.420;7.036;2023-08-31T05:05:56;19.50;;;11.77;;
18623;SDS011;9441;51.420;7.036;2023-08-31T05:06:57;22.77;;;12.33;;
18623;SDS011;9441;51.420;7.036;2023-08-31T05:08:00;24.80;;;12.47;;
18623;SDS011;9441;51.420;7.036;2023-08-31T05:09:01;19.23;;;12.10;;
18623;SDS011;9441;51.420;7.036;2023-08-31T05:10:04;20.37;;;11.63;;
18623;SDS011;9441;51.420;7.036;2023-08-31T05:11:06;20.80;;;11.27;;
18623;SDS011;9441;51.420;7.036;2023-08-31T05:12:08;19.17;;;10.73;;
18623;SDS011;9441;51.420;7.036;2023-08-31T05:13:09;21.10;;;12.03;;
18623;SDS011;9441;51.420;7.036;2023-08-31T05:14:12;23.60;;;13.07;;
18623;SDS011;9441;51.420;7.036;2023-08-31T05:15:13;26.13;;;13.67;;
18623;SDS011;9441;51.420;7.036;2023-08-31T05:16:16;21.83;;;13.10;;
18623;SDS011;9441;51.420;7.036;2023-08-31T05:17:17;25.20;;;13.40;;
18623;SDS011;9441;51.420;7.036;2023-08-31T05:18:21;24.50;;;13.63;;
18623;SDS011;9441;51.420;7.036;2023-08-31T05:19:22;26.47;;;13.47;;
18623;SDS011;9441;51.420;7.036;2023-08-31T05:20:25;23.13;;;13.20;;
18623;SDS011;9441;51.420;7.036;2023-08-31T05:21:26;21.83;;;13.20;;
18623;SDS011;9441;51.420;7.036;2023-08-31T05:22:27;25.33;;;13.10;;
18623;SDS011;9441;51.420;7.036;2023-08-31T05:23:31;21.07;;;12.57;;
18623;SDS011;9441;51.420;7.036;2023-08-31T05:24:32;22.90;;;12.73;;
18623;SDS011;9441;51.420;7.036;2023-08-31T05:25:34;22.33;;;12.37;;
18623;SDS011;9441;51.420;7.036;2023-08-31T05:26:36;20.47;;;12.77;;
18623;SDS011;9441;51.420;7.036;2023-08-31T05:27:38;23.77;;;13.03;;
18623;SDS011;9441;51.420;7.036;2023-08-31T05:28:40;22.00;;;12.60;;
18623;SDS011;9441;51.420;7.036;2023-08-31T05:29:43;21.00;;;12.50;;
18623;SDS011;9441;51.420;7.036;2023-08-31T05:30:47;24.93;;;12.17;;
18623;SDS011;9441;51.420;7.036;2023-08-31T05:31:51;17.63;;;11.43;;
18623;SDS011;9441;51.420;7.036;2023-08-31T05:32:53;21.03;;;12.23;;
18623;SDS011;9441;51.420;7.036;2023-08-31T05:33:56;17.83;;;11.33;;
18623;SDS011;9441;51.420;7.036;2023-08-31T05:34:58;20.40;;;11.53;;
18623;SDS011;9441;51.420;7.036;2023-08-31T05:36:00;20.43;;;11.30;;
18623;SDS011;9441;51.420;7.036;2023-08-31T05:37:03;21.07;;;11.00;;
18623;SDS011;9441;51.420;7.036;2023-08-31T05:38:05;20.07;;;10.67;;
18623;SDS011;9441;51.420;7.036;2023-08-31T05:39:08;20.53;;;10.73;;
18623;SDS011;9441;51.420;7.036;2023-08-31T05:40:10;17.90;;;10.60;;
18623;SDS011;9441;51.420;7.036;2023-08-31T05:41:12;14.73;;;9.97;;
18623;SDS011;9441;51.420;7.036;2023-08-31T05:42:13;19.43;;;10.30;;
18623;SDS011;9441;51.420;7.036;2023-08-31T05:43:16;19.90;;;10.77;;
18623;SDS011;9441;51.420;7.036;2023-08-31T05:44:17;17.93;;;10.27;;
18623;SDS011;9441;51.420;7.036;2023-08-31T05:45:19;18.00;;;11.73;;
18623;SDS011;9441;51.420;7.036;2023-08-31T05:46:21;19.07;;;11.67;;
18623;SDS011;9441;51.420;7.036;2023-08-31T05:47:23;15.57;;;10.83;;
18623;SDS011;9441;51.420;7.036;2023-08-31T05:48:24;18.90;;;10.30;;
18623;SDS011;9441;51.420;7.036;2023-08-31T05:49:28;20.00;;;11.00;;
18623;SDS011;9441;51.420;7.036;2023-08-31T05:50:29;22.10;;;10.70;;
18623;SDS011;9441;51.420;7.036;2023-08-31T05:51:32;18.80;;;10.53;;
18623;SDS011;9441;51.420;7.036;2023-08-31T05:52:33;15.60;;;10.23;;
18623;SDS011;9441;51.420;7.036;2023-08-31T05:53:35;18.50;;;10.23;;
18623;SDS011;9441;51.420;7.036;2023-08-31T05:54:37;14.67;;;10.03;;
18623;SDS011;9441;51.420;7.036;2023-08-31T05:55:40;21.70;;;10.87;;
18623;SDS011;9441;51.420;7.036;2023-08-31T05:56:41;16.07;;;10.50;;
18623;SDS011;9441;51.420;7.036;2023-08-31T05:57:43;16.67;;;10.00;;
18623;SDS011;9441;51.420;7.036;2023-08-31T05:58:45;17.50;;;9.80;;
18623;SDS011;9441;51.420;7.036;2023-08-31T05:59:47;15.03;;;9.27;;
18623;SDS011;9441;51.420;7.036;2023-08-31T06:00:49;13.70;;;9.83;;
18623;SDS011;9441;51.420;7.036;2023-08-31T06:01:51;14.70;;;9.43;;
18623;SDS011;9441;51.420;7.036;2023-08-31T06:02:52;17.07;;;9.10;;
18623;SDS011;9441;51.420;7.036;2023-08-31T06:03:54;14.37;;;9.30;;
18623;SDS011;9441;51.420;7.036;2023-08-31T06:04:57;18.30;;;9.20;;
18623;SDS011;9441;51.420;7.036;2023-08-31T06:06:00;20.57;;;9.67;;
18623;SDS011;9441;51.420;7.036;2023-08-31T06:07:02;14.17;;;9.10;;
18623;SDS011;9441;51.420;7.036;2023-08-31T06:08:04;13.70;;;8.53;;
18623;SDS011;9441;51.420;7.036;2023-08-31T06:09:06;14.17;;;9.20;;
18623;SDS011;9441;51.420;7.036;2023-08-31T06:10:08;13.50;;;9.00;;
18623;SDS011;9441;51.420;7.036;2023-08-31T06:11:10;16.07;;;9.17;;
18623;SDS011;9441;51.420;7.036;2023-08-31T06:12:13;16.47;;;9.70;;
18623;SDS011;9441;51.420;7.036;2023-08-31T06:13:14;16.63;;;9.50;;
18623;SDS011;9441;51.420;7.036;2023-08-31T06:14:17;18.87;;;9.40;;
18623;SDS011;9441;51.420;7.036;2023-08-31T06:15:19;17.20;;;9.00;;
18623;SDS011;9441;51.420;7.036;2023-08-31T06:16:22;19.63;;;9.83;;
18623;SDS011;9441;51.420;7.036;2023-08-31T06:17:24;21.10;;;9.70;;
18623;SDS011;9441;51.420;7.036;2023-08-31T06:18:26;16.57;;;9.43;;